This is the latest recevied weather packets stored in our database for station/object OM5AST-13. If no packets are shown the sender has not sent any weather packets the latest 10 day(s).
| Time | Temp. | Humidity | Pressure | Rain* | Wind** | Luminosity | Snow |
|---|---|---|---|---|---|---|---|
| 1777927436 | 19.44° C | 40% | - | 0 mm | - | 0 W/m² | - |
| 1777926236 | 20° C | 40% | - | 0 mm | - | 0 W/m² | - |
| 1777925035 | 20.56° C | 38% | - | 0 mm | - | 0 W/m² | - |
| 1777923835 | 21.11° C | 37% | - | 0 mm | - | 0 W/m² | - |
| 1777922635 | 21.67° C | 35% | - | 0 mm | - | 0 W/m² | - |
| 1777921435 | 22.78° C | 33% | - | 0 mm | - | 0 W/m² | - |
| 1777920235 | 23.89° C | 32% | - | 0 mm | - | 0 W/m² | - |
| 1777919035 | 25° C | 29% | - | 0 mm | - | 0 W/m² | - |
| 1777917835 | 26.67° C | 28% | - | 0 mm | - | 0 W/m² | - |
| 1777916635 | 28.89° C | 22% | - | 0 mm | - | 0 W/m² | - |
| 1777915435 | 30° C | 21% | - | 0 mm | - | 0 W/m² | - |
| 1777914235 | 32.22° C | 20% | - | 0 mm | - | 0 W/m² | - |
| 1777913035 | 31.67° C | 20% | - | 0 mm | - | 0 W/m² | - |
| 1777911835 | 31.67° C | 20% | - | 0 mm | - | 0 W/m² | - |
| 1777910635 | 31.11° C | 21% | - | 0 mm | - | 0 W/m² | - |
| 1777909435 | 31.11° C | 21% | - | 0 mm | - | 0 W/m² | - |
| 1777908235 | 31.11° C | 21% | - | 0 mm | - | 0 W/m² | - |
| 1777907036 | 31.11° C | 23% | - | 0 mm | - | 0 W/m² | - |
| 1777905835 | 30.56° C | 23% | - | 0 mm | - | 0 W/m² | - |
| 1777904635 | 30° C | 24% | - | 0 mm | - | 0 W/m² | - |
| 1777903436 | 28.89° C | 24% | - | 0 mm | - | 0 W/m² | - |
| 1777902236 | 28.89° C | 25% | - | 0 mm | - | 0 W/m² | - |
| 1777901035 | 28.33° C | 25% | - | 0 mm | - | 0 W/m² | - |
| 1777899835 | 27.78° C | 26% | - | 0 mm | - | 0 W/m² | - |
| 1777898635 | 27.22° C | 29% | - | 0 mm | - | 0 W/m² | - |
* Rain latest hour (hover to see other rain measurements)
** Current wind speed in m/s (hover to see current wind gust speed)